createdAt,value
2024-03-27T00:00:40.687Z,465.00
2024-03-27T00:01:40.736Z,464.00
2024-03-27T00:02:40.794Z,463.00
2024-03-27T00:03:40.843Z,459.00
2024-03-27T00:57:59.167Z,458.00
2024-03-27T00:58:41.184Z,458.00
2024-03-27T00:59:41.177Z,459.00
2024-03-27T01:00:41.178Z,457.00
2024-03-27T01:01:41.176Z,454.00
2024-03-27T01:02:41.188Z,455.00
2024-03-27T01:03:41.194Z,458.00
2024-03-27T01:04:41.194Z,459.00
2024-03-27T01:05:41.198Z,461.00
2024-03-27T01:06:41.200Z,462.00
2024-03-27T01:07:41.211Z,463.00
2024-03-27T01:08:43.298Z,463.00
2024-03-27T01:09:41.205Z,462.00
2024-03-27T01:10:42.120Z,460.00
2024-03-27T01:11:41.209Z,459.00
2024-03-27T01:12:41.210Z,459.00
2024-03-27T01:13:41.227Z,457.00
2024-03-27T01:14:41.212Z,459.00
2024-03-27T01:16:02.675Z,457.00
2024-03-27T01:16:41.216Z,459.00
2024-03-27T01:17:41.236Z,456.00
2024-03-27T01:18:41.244Z,457.00
2024-03-27T01:19:41.214Z,457.00
2024-03-27T01:20:41.215Z,459.00
2024-03-27T01:21:41.224Z,461.00
2024-03-27T01:22:41.225Z,462.00
2024-03-27T01:23:41.241Z,462.00
2024-03-27T01:24:41.226Z,459.00
2024-03-27T01:25:41.232Z,459.00
2024-03-27T01:26:41.235Z,461.00
2024-03-27T01:27:41.221Z,459.00
2024-03-27T01:28:41.231Z,458.00
2024-03-27T01:29:41.241Z,457.00
2024-03-27T01:30:41.230Z,458.00
2024-03-27T01:31:41.233Z,458.00
2024-03-27T01:32:41.235Z,455.00
2024-03-27T01:33:41.243Z,457.00
2024-03-27T01:34:41.235Z,461.00
2024-03-27T01:35:41.244Z,459.00
2024-03-27T01:36:41.236Z,459.00
2024-03-27T01:37:41.253Z,457.00
2024-03-27T01:38:41.262Z,453.00
2024-03-27T01:39:41.247Z,455.00
2024-03-27T01:40:41.320Z,455.00
2024-03-27T01:41:41.408Z,454.00
2024-03-27T01:42:41.495Z,455.00
2024-03-27T01:43:41.618Z,456.00
2024-03-27T01:44:41.684Z,458.00
2024-03-27T01:45:41.785Z,456.00
2024-03-27T01:47:03.346Z,458.00
2024-03-27T01:47:42.658Z,457.00
2024-03-27T01:48:42.649Z,453.00
2024-03-27T01:50:03.668Z,453.00
2024-03-27T01:50:41.860Z,454.00
2024-03-27T01:51:41.860Z,460.00
2024-03-27T01:53:03.423Z,461.00
2024-03-27T01:53:41.871Z,461.00
2024-03-27T01:54:41.880Z,464.00
2024-03-27T01:56:04.848Z,465.00
2024-03-27T01:56:41.869Z,464.00
2024-03-27T01:58:03.356Z,463.00
2024-03-27T01:58:41.881Z,462.00
2024-03-27T02:00:04.896Z,461.00
2024-03-27T02:02:08.272Z,460.00
2024-03-27T02:02:46.839Z,457.00
2024-03-27T02:04:08.291Z,459.00
2024-03-27T02:04:46.824Z,460.00
2024-03-27T02:05:46.836Z,462.00
2024-03-27T02:06:46.835Z,463.00
2024-03-27T02:08:08.281Z,466.00
2024-03-27T02:08:46.829Z,466.00
2024-03-27T02:10:08.329Z,467.00
2024-03-27T02:10:46.854Z,466.00
2024-03-27T02:11:46.852Z,465.00
2024-03-27T02:12:46.839Z,465.00
2024-03-27T02:13:46.839Z,464.00
2024-03-27T02:14:46.842Z,461.00
2024-03-27T02:15:46.869Z,462.00
2024-03-27T02:16:46.838Z,465.00
2024-03-27T02:17:46.870Z,463.00
2024-03-27T02:18:46.875Z,461.00
2024-03-27T02:19:46.893Z,460.00
2024-03-27T02:20:46.887Z,460.00
2024-03-27T02:21:46.882Z,463.00
2024-03-27T02:22:46.959Z,462.00
2024-03-27T02:23:46.895Z,458.00
2024-03-27T02:24:46.896Z,457.00
2024-03-27T02:25:46.898Z,458.00
2024-03-27T02:26:46.895Z,459.00
2024-03-27T02:27:46.893Z,455.00
2024-03-27T02:28:46.899Z,458.00
2024-03-27T02:29:46.897Z,459.00
2024-03-27T02:30:46.899Z,462.00
2024-03-27T02:31:46.894Z,460.00
2024-03-27T02:32:46.919Z,460.00
2024-03-27T02:33:46.918Z,461.00
2024-03-27T02:34:46.911Z,459.00
2024-03-27T02:35:47.001Z,458.00
2024-03-27T02:36:47.121Z,458.00
2024-03-27T02:37:47.236Z,458.00
2024-03-27T02:38:47.346Z,459.00
2024-03-27T02:39:47.464Z,460.00
2024-03-27T02:40:47.586Z,461.00
2024-03-27T02:41:47.692Z,462.00
2024-03-27T02:42:47.810Z,463.00
2024-03-27T02:43:48.844Z,465.00
2024-03-27T02:44:47.985Z,465.00
2024-03-27T02:45:48.016Z,465.00
2024-03-27T02:46:48.048Z,467.00
2024-03-27T02:47:48.082Z,471.00
2024-03-27T02:48:48.108Z,469.00
2024-03-27T02:49:48.165Z,469.00
2024-03-27T02:50:48.214Z,468.00
2024-03-27T02:51:48.844Z,469.00
2024-03-27T02:52:48.379Z,464.00
2024-03-27T02:53:48.417Z,464.00
2024-03-27T02:54:48.437Z,463.00
2024-03-27T02:55:48.476Z,462.00
2024-03-27T02:56:48.513Z,463.00
2024-03-27T02:57:48.553Z,464.00
2024-03-27T02:58:48.604Z,466.00
2024-03-27T02:59:48.716Z,465.00
2024-03-27T03:00:51.752Z,467.00
2024-03-27T03:01:48.835Z,468.00
2024-03-27T03:02:48.840Z,470.00
2024-03-27T03:03:48.868Z,468.00
2024-03-27T03:04:48.931Z,470.00
2024-03-27T03:05:49.007Z,470.00
2024-03-27T03:06:49.058Z,473.00
2024-03-27T03:07:49.087Z,469.00
2024-03-27T03:08:49.855Z,469.00
2024-03-27T03:09:51.846Z,466.00
2024-03-27T03:10:49.167Z,469.00
2024-03-27T03:11:49.162Z,470.00
2024-03-27T03:12:49.163Z,469.00
2024-03-27T03:13:49.171Z,470.00
2024-03-27T03:14:49.186Z,470.00
2024-03-27T03:15:49.180Z,469.00
2024-03-27T03:16:49.198Z,469.00
2024-03-27T03:17:49.191Z,469.00
2024-03-27T03:18:49.184Z,469.00
2024-03-27T03:19:49.202Z,471.00
2024-03-27T03:20:49.187Z,473.00
2024-03-27T03:21:49.210Z,471.00
2024-03-27T03:22:49.853Z,468.00
2024-03-27T03:23:49.503Z,466.00
2024-03-27T03:24:49.198Z,464.00
2024-03-27T03:25:49.209Z,464.00
2024-03-27T03:26:49.210Z,467.00
2024-03-27T03:27:49.220Z,469.00
2024-03-27T03:28:49.208Z,471.00
2024-03-27T03:29:49.851Z,469.00
2024-03-27T03:30:49.237Z,468.00
2024-03-27T03:31:49.281Z,468.00
2024-03-27T03:32:49.330Z,471.00
2024-03-27T03:33:49.894Z,467.00
2024-03-27T03:34:49.408Z,467.00
2024-03-27T03:35:49.453Z,466.00
2024-03-27T03:36:49.506Z,465.00
2024-03-27T03:37:49.566Z,464.00
2024-03-27T03:38:49.593Z,465.00
2024-03-27T03:39:49.630Z,467.00
2024-03-27T03:40:49.670Z,471.00
2024-03-27T03:41:49.784Z,473.00
2024-03-27T03:42:49.902Z,472.00
2024-03-27T03:43:50.001Z,473.00
2024-03-27T03:44:50.122Z,471.00
2024-03-27T03:45:50.256Z,468.00
2024-03-27T03:46:50.383Z,465.00
2024-03-27T03:47:50.481Z,467.00
2024-03-27T03:48:50.617Z,469.00
2024-03-27T03:49:51.368Z,469.00
2024-03-27T03:50:50.759Z,468.00
2024-03-27T03:51:50.804Z,469.00
2024-03-27T03:52:50.844Z,466.00
2024-03-27T03:53:50.911Z,464.00
2024-03-27T03:54:50.926Z,464.00
2024-03-27T03:55:50.961Z,462.00
2024-03-27T03:56:51.163Z,463.00
2024-03-27T03:57:51.223Z,461.00
2024-03-27T03:58:51.232Z,459.00
2024-03-27T03:59:51.355Z,458.00
2024-03-27T04:00:51.463Z,457.00
2024-03-27T04:01:51.594Z,455.00
2024-03-27T04:02:51.719Z,455.00
2024-03-27T04:03:51.844Z,455.00
2024-03-27T04:04:51.986Z,457.00
2024-03-27T04:05:52.115Z,455.00
2024-03-27T04:06:52.213Z,457.00
2024-03-27T04:07:52.324Z,457.00
2024-03-27T04:08:52.414Z,460.00
2024-03-27T04:09:52.895Z,459.00
2024-03-27T04:10:52.630Z,460.00
2024-03-27T04:11:52.737Z,458.00
2024-03-27T04:12:52.839Z,458.00
2024-03-27T04:13:52.973Z,454.00
2024-03-27T04:14:53.106Z,454.00
2024-03-27T04:15:53.197Z,454.00
2024-03-27T04:16:53.314Z,455.00
2024-03-27T04:17:53.443Z,454.00
2024-03-27T04:18:54.371Z,454.00
2024-03-27T04:19:53.623Z,456.00
2024-03-27T04:20:53.664Z,456.00
2024-03-27T04:21:53.724Z,461.00
2024-03-27T04:22:53.780Z,462.00
2024-03-27T04:23:53.837Z,463.00
2024-03-27T04:24:53.875Z,464.00
2024-03-27T04:26:03.806Z,462.00
2024-03-27T04:26:53.906Z,462.00
2024-03-27T04:27:53.905Z,461.00
2024-03-27T04:28:53.910Z,463.00
2024-03-27T04:29:53.904Z,464.00
2024-03-27T04:30:53.910Z,462.00
2024-03-27T04:31:53.951Z,462.00
2024-03-27T04:32:53.985Z,461.00
2024-03-27T04:33:53.988Z,461.00
2024-03-27T04:34:53.960Z,460.00
2024-03-27T04:35:53.961Z,462.00
2024-03-27T04:36:53.971Z,463.00
2024-03-27T04:37:53.997Z,463.00
2024-03-27T04:38:54.011Z,462.00
2024-03-27T04:39:54.003Z,462.00
2024-03-27T04:40:54.009Z,461.00
2024-03-27T04:42:02.175Z,460.00
2024-03-27T04:43:02.464Z,460.00
2024-03-27T04:44:02.507Z,459.00
2024-03-27T04:45:02.539Z,458.00
2024-03-27T04:46:02.563Z,458.00
2024-03-27T04:47:02.599Z,459.00
2024-03-27T04:48:02.669Z,460.00
2024-03-27T04:49:02.713Z,461.00
2024-03-27T04:50:02.735Z,458.00
2024-03-27T04:51:02.781Z,460.00
2024-03-27T04:52:02.874Z,462.00
2024-03-27T04:53:02.962Z,464.00
2024-03-27T04:54:03.025Z,465.00
2024-03-27T04:55:03.086Z,463.00
2024-03-27T04:56:03.148Z,461.00
2024-03-27T04:57:03.190Z,461.00
2024-03-27T04:58:03.261Z,464.00
2024-03-27T04:59:03.320Z,462.00
2024-03-27T05:00:03.373Z,463.00
2024-03-27T05:01:03.425Z,462.00
2024-03-27T05:02:03.477Z,462.00
2024-03-27T05:03:03.538Z,463.00
2024-03-27T05:04:03.588Z,460.00
2024-03-27T05:05:03.664Z,460.00
2024-03-27T05:06:03.743Z,457.00
2024-03-27T05:07:03.841Z,459.00
2024-03-27T05:08:03.924Z,458.00
2024-03-27T05:09:04.022Z,458.00
2024-03-27T05:10:04.136Z,459.00
2024-03-27T05:11:04.190Z,461.00
2024-03-27T05:12:04.267Z,461.00
2024-03-27T05:13:04.347Z,461.00
2024-03-27T05:14:04.445Z,461.00
2024-03-27T05:15:04.508Z,463.00
2024-03-27T05:16:04.599Z,463.00
2024-03-27T05:17:04.716Z,463.00
2024-03-27T05:18:04.761Z,463.00
2024-03-27T05:19:04.837Z,462.00
2024-03-27T05:20:04.931Z,461.00
2024-03-27T05:21:05.007Z,460.00
2024-03-27T05:22:05.089Z,462.00
2024-03-27T05:23:05.172Z,462.00
2024-03-27T05:24:05.282Z,459.00
2024-03-27T05:25:05.352Z,460.00
2024-03-27T05:26:08.340Z,463.00
2024-03-27T05:27:05.831Z,464.00
2024-03-27T05:28:05.467Z,463.00
2024-03-27T05:29:05.462Z,462.00
2024-03-27T05:30:05.503Z,459.00
2024-03-27T05:31:05.471Z,459.00
2024-03-27T05:32:05.473Z,459.00
2024-03-27T05:33:05.468Z,457.00
2024-03-27T05:34:05.473Z,457.00
2024-03-27T05:35:05.847Z,459.00
2024-03-27T05:37:04.478Z,455.00
2024-03-27T05:38:05.473Z,459.00
2024-03-27T05:39:05.484Z,460.00
2024-03-27T05:40:05.491Z,459.00
2024-03-27T05:41:05.500Z,460.00
2024-03-27T05:42:05.494Z,461.00
2024-03-27T05:43:05.500Z,459.00
2024-03-27T05:44:05.507Z,457.00
2024-03-27T05:45:05.499Z,457.00
2024-03-27T05:46:05.518Z,455.00
2024-03-27T05:47:06.340Z,457.00
2024-03-27T05:48:05.530Z,458.00
2024-03-27T05:49:05.525Z,458.00
2024-03-27T05:50:05.516Z,458.00
2024-03-27T05:51:05.515Z,457.00
2024-03-27T05:52:06.344Z,459.00
2024-03-27T05:53:05.533Z,459.00
2024-03-27T05:54:05.522Z,460.00
2024-03-27T05:55:05.534Z,460.00
2024-03-27T05:56:05.536Z,460.00
2024-03-27T05:57:05.535Z,459.00
2024-03-27T05:58:05.524Z,458.00
2024-03-27T05:59:05.534Z,461.00
2024-03-27T06:00:05.535Z,458.00
2024-03-27T06:01:05.534Z,458.00
2024-03-27T06:02:05.546Z,458.00
2024-03-27T06:03:05.575Z,461.00
2024-03-27T06:04:05.586Z,463.00
2024-03-27T06:05:05.577Z,465.00
2024-03-27T06:06:05.574Z,466.00
2024-03-27T06:07:05.582Z,466.00
2024-03-27T06:08:05.583Z,463.00
2024-03-27T06:09:05.577Z,465.00
2024-03-27T06:10:05.619Z,465.00
2024-03-27T06:11:05.699Z,468.00
2024-03-27T06:12:05.779Z,465.00
2024-03-27T06:13:05.862Z,465.00
2024-03-27T06:14:05.934Z,465.00
2024-03-27T06:15:06.016Z,462.00
2024-03-27T06:16:06.868Z,461.00
2024-03-27T06:17:06.148Z,461.00
2024-03-27T06:18:06.208Z,461.00
2024-03-27T06:19:06.214Z,460.00
2024-03-27T06:20:06.243Z,458.00
2024-03-27T06:21:06.269Z,458.00
2024-03-27T06:22:06.310Z,458.00
2024-03-27T06:23:06.328Z,459.00
2024-03-27T06:24:06.370Z,460.00
2024-03-27T06:25:06.405Z,459.00
2024-03-27T06:26:07.354Z,459.00
2024-03-27T06:27:06.454Z,461.00
2024-03-27T06:28:06.862Z,461.00
2024-03-27T06:29:07.354Z,458.00
2024-03-27T06:30:06.532Z,459.00
2024-03-27T06:31:07.355Z,457.00
2024-03-27T06:32:07.495Z,459.00
2024-03-27T06:33:06.619Z,456.00
2024-03-27T06:34:06.610Z,457.00
2024-03-27T06:35:06.588Z,456.00
2024-03-27T06:36:06.591Z,456.00
2024-03-27T06:37:06.587Z,458.00
2024-03-27T06:38:06.607Z,460.00
2024-03-27T06:39:06.606Z,463.00
2024-03-27T06:40:06.606Z,465.00
2024-03-27T06:41:06.605Z,464.00
2024-03-27T06:42:06.593Z,459.00
2024-03-27T06:43:06.592Z,458.00
2024-03-27T06:44:06.603Z,457.00
2024-03-27T06:45:13.597Z,457.00
2024-03-27T06:46:06.638Z,457.00
2024-03-27T06:47:06.604Z,459.00
2024-03-27T06:48:06.613Z,461.00
2024-03-27T06:49:06.870Z,461.00
2024-03-27T06:50:06.623Z,463.00
2024-03-27T06:51:06.608Z,462.00
2024-03-27T06:52:06.644Z,462.00
2024-03-27T06:53:06.639Z,462.00
2024-03-27T06:54:06.639Z,461.00
2024-03-27T06:55:06.669Z,462.00
2024-03-27T06:56:08.041Z,462.00
2024-03-27T06:57:06.684Z,463.00
2024-03-27T06:58:06.716Z,459.00
2024-03-27T06:59:06.765Z,460.00
2024-03-27T07:00:06.838Z,458.00
2024-03-27T07:01:17.260Z,459.00
2024-03-27T07:02:06.815Z,459.00
2024-03-27T07:03:06.815Z,461.00
2024-03-27T07:04:06.840Z,464.00
2024-03-27T07:05:06.873Z,464.00
2024-03-27T07:06:06.876Z,465.00
2024-03-27T07:07:06.884Z,465.00
2024-03-27T07:08:07.868Z,466.00
2024-03-27T07:09:06.965Z,465.00
2024-03-27T07:10:07.414Z,467.00
2024-03-27T07:11:07.038Z,465.00
2024-03-27T07:12:07.869Z,464.00
2024-03-27T07:13:07.098Z,466.00
2024-03-27T07:14:07.109Z,465.00
2024-03-27T07:15:07.884Z,463.00
2024-03-27T07:16:07.179Z,462.00
2024-03-27T07:17:07.200Z,461.00
2024-03-27T07:18:07.240Z,462.00
2024-03-27T07:19:07.264Z,461.00
2024-03-27T07:20:07.880Z,461.00
2024-03-27T07:21:07.330Z,459.00
2024-03-27T07:22:07.378Z,459.00
2024-03-27T07:23:07.398Z,460.00
2024-03-27T07:24:07.430Z,459.00
2024-03-27T07:25:07.537Z,460.00
2024-03-27T07:26:07.491Z,458.00
2024-03-27T07:27:07.508Z,461.00
2024-03-27T07:28:07.539Z,460.00
2024-03-27T07:29:07.571Z,461.00
2024-03-27T07:30:10.772Z,464.00
2024-03-27T07:31:07.912Z,465.00
2024-03-27T07:32:07.602Z,464.00
2024-03-27T07:33:07.606Z,461.00
2024-03-27T07:34:07.623Z,460.00
2024-03-27T07:35:07.614Z,459.00
2024-03-27T07:36:07.628Z,457.00
2024-03-27T07:37:07.609Z,456.00
2024-03-27T07:38:07.633Z,454.00
2024-03-27T07:39:07.623Z,453.00
2024-03-27T07:40:07.883Z,453.00
2024-03-27T07:41:08.403Z,453.00
2024-03-27T07:42:07.629Z,453.00
2024-03-27T07:43:07.623Z,454.00
2024-03-27T07:44:08.383Z,453.00
2024-03-27T07:45:07.642Z,453.00
2024-03-27T07:46:07.639Z,453.00
2024-03-27T07:47:07.636Z,453.00
2024-03-27T07:48:07.683Z,453.00
2024-03-27T07:49:07.632Z,454.00
2024-03-27T07:50:07.652Z,454.00
2024-03-27T07:51:07.643Z,454.00
2024-03-27T07:52:07.647Z,453.00
2024-03-27T07:53:07.644Z,457.00
2024-03-27T07:54:07.699Z,457.00
2024-03-27T07:55:07.735Z,457.00
2024-03-27T07:56:07.778Z,457.00
2024-03-27T07:57:07.816Z,457.00
2024-03-27T07:58:08.393Z,459.00
2024-03-27T07:59:07.922Z,458.00
2024-03-27T08:00:08.065Z,459.00
2024-03-27T08:01:08.014Z,457.00
2024-03-27T08:02:08.068Z,456.00
2024-03-27T08:03:08.070Z,457.00
2024-03-27T08:04:08.072Z,459.00
2024-03-27T08:05:08.070Z,456.00
2024-03-27T08:06:08.068Z,456.00
2024-03-27T08:07:08.081Z,457.00
2024-03-27T08:08:10.888Z,458.00
2024-03-27T08:09:08.081Z,460.00
2024-03-27T08:10:08.108Z,460.00
2024-03-27T08:11:08.085Z,459.00
2024-03-27T08:12:08.079Z,459.00
2024-03-27T08:13:08.083Z,460.00
2024-03-27T08:14:08.082Z,462.00
2024-03-27T08:15:08.098Z,461.00
2024-03-27T08:16:08.155Z,463.00
2024-03-27T08:17:08.191Z,464.00
2024-03-27T08:18:08.238Z,463.00
2024-03-27T08:19:08.287Z,464.00
2024-03-27T08:20:08.342Z,459.00
2024-03-27T08:21:08.380Z,458.00
2024-03-27T08:22:08.448Z,455.00
2024-03-27T08:23:08.479Z,455.00
2024-03-27T08:24:08.532Z,454.00
2024-03-27T08:25:08.577Z,455.00
2024-03-27T08:26:10.323Z,457.00
2024-03-27T08:27:08.627Z,455.00
2024-03-27T08:28:08.632Z,453.00
2024-03-27T08:29:08.624Z,452.00
2024-03-27T08:30:08.642Z,454.00
2024-03-27T08:31:08.629Z,456.00
2024-03-27T08:32:09.916Z,457.00
2024-03-27T08:33:08.637Z,457.00
2024-03-27T08:34:08.820Z,453.00
2024-03-27T08:35:08.650Z,454.00
2024-03-27T08:36:08.666Z,452.00
2024-03-27T08:37:08.712Z,455.00
2024-03-27T08:38:14.264Z,457.00
2024-03-27T08:39:08.778Z,459.00
2024-03-27T08:40:08.769Z,460.00
2024-03-27T08:41:08.769Z,462.00
2024-03-27T08:42:08.781Z,463.00
2024-03-27T08:43:08.771Z,462.00
2024-03-27T08:44:08.790Z,461.00
2024-03-27T08:45:08.788Z,463.00
2024-03-27T08:46:08.789Z,461.00
2024-03-27T08:47:08.840Z,461.00
2024-03-27T08:48:08.788Z,460.00
2024-03-27T08:49:08.777Z,458.00
2024-03-27T08:50:08.791Z,458.00
2024-03-27T08:51:08.796Z,459.00
2024-03-27T08:52:08.797Z,460.00
2024-03-27T08:53:08.814Z,459.00
2024-03-27T08:54:08.805Z,458.00
2024-03-27T08:55:08.811Z,458.00
2024-03-27T08:56:08.824Z,458.00
2024-03-27T08:57:08.818Z,456.00
2024-03-27T08:58:08.851Z,456.00
2024-03-27T08:59:08.816Z,457.00
2024-03-27T09:00:08.834Z,456.00
2024-03-27T09:01:08.828Z,455.00
2024-03-27T09:02:08.834Z,456.00
2024-03-27T09:03:08.828Z,457.00
2024-03-27T09:04:08.833Z,454.00
2024-03-27T09:05:08.840Z,456.00
2024-03-27T09:06:08.847Z,456.00
2024-03-27T09:07:08.852Z,455.00
2024-03-27T09:08:08.904Z,456.00
2024-03-27T09:09:08.848Z,456.00
2024-03-27T09:10:08.843Z,458.00
2024-03-27T09:11:08.844Z,460.00
2024-03-27T09:12:08.855Z,462.00
2024-03-27T09:13:08.930Z,464.00
2024-03-27T09:14:09.012Z,465.00
2024-03-27T09:15:09.079Z,465.00
2024-03-27T09:16:09.150Z,464.00
2024-03-27T09:17:09.212Z,462.00
2024-03-27T09:18:09.424Z,461.00
2024-03-27T09:19:09.365Z,456.00
2024-03-27T09:20:09.439Z,452.00
2024-03-27T09:21:09.511Z,454.00
2024-03-27T09:22:09.581Z,451.00
2024-03-27T09:23:09.658Z,453.00
2024-03-27T09:24:09.721Z,453.00
2024-03-27T09:25:09.785Z,453.00
2024-03-27T09:26:09.855Z,456.00
2024-03-27T09:27:09.904Z,459.00
2024-03-27T09:28:09.963Z,459.00
2024-03-27T09:29:10.011Z,459.00
2024-03-27T09:30:10.083Z,459.00
2024-03-27T09:31:10.114Z,463.00
2024-03-27T09:32:10.433Z,464.00
2024-03-27T09:33:10.212Z,465.00
2024-03-27T09:34:10.279Z,465.00
2024-03-27T09:35:10.321Z,464.00
2024-03-27T09:36:10.378Z,464.00
2024-03-27T09:37:10.427Z,465.00
2024-03-27T09:38:10.495Z,464.00
2024-03-27T09:39:10.536Z,463.00
2024-03-27T09:40:10.823Z,462.00
2024-03-27T09:41:10.670Z,460.00
2024-03-27T09:42:10.744Z,458.00
2024-03-27T09:43:10.792Z,456.00
2024-03-27T09:44:11.502Z,454.00
2024-03-27T09:45:10.880Z,455.00
2024-03-27T09:46:11.534Z,456.00
2024-03-27T09:47:11.017Z,456.00
2024-03-27T09:48:11.058Z,456.00
2024-03-27T09:49:17.931Z,457.00
2024-03-27T09:50:11.109Z,460.00
2024-03-27T09:51:11.167Z,461.00
2024-03-27T09:52:11.115Z,459.00
2024-03-27T09:53:11.107Z,458.00
2024-03-27T09:54:11.112Z,462.00
2024-03-27T09:55:11.110Z,463.00
2024-03-27T09:56:11.937Z,465.00
2024-03-27T09:57:13.031Z,464.00
2024-03-27T09:58:11.141Z,462.00
2024-03-27T09:59:11.127Z,463.00
2024-03-27T10:00:11.132Z,462.00
2024-03-27T10:01:11.938Z,462.00
2024-03-27T10:02:11.138Z,462.00
2024-03-27T10:03:12.638Z,464.00
2024-03-27T10:04:11.943Z,463.00
2024-03-27T10:05:11.147Z,461.00
2024-03-27T10:06:11.451Z,458.00
2024-03-27T10:07:11.133Z,456.00
2024-03-27T10:08:11.940Z,456.00
2024-03-27T10:09:12.284Z,457.00
2024-03-27T10:10:11.139Z,457.00
2024-03-27T10:11:11.139Z,458.00
2024-03-27T10:12:11.172Z,462.00
2024-03-27T10:13:11.166Z,463.00
2024-03-27T10:14:11.166Z,462.00
2024-03-27T10:15:11.958Z,460.00
2024-03-27T10:16:11.346Z,460.00
2024-03-27T10:17:11.397Z,456.00
2024-03-27T10:18:11.460Z,454.00
2024-03-27T10:19:11.947Z,456.00
2024-03-27T10:20:11.565Z,455.00
2024-03-27T10:21:11.632Z,457.00
2024-03-27T10:22:11.682Z,459.00
2024-03-27T10:23:11.726Z,460.00
2024-03-27T10:24:11.869Z,462.00
2024-03-27T10:25:11.863Z,462.00
2024-03-27T10:26:11.902Z,462.00
2024-03-27T10:27:14.025Z,461.00
2024-03-27T10:28:11.973Z,460.00
2024-03-27T10:29:11.969Z,467.00
2024-03-27T10:30:11.968Z,465.00
2024-03-27T10:31:12.961Z,460.00
2024-03-27T10:32:11.975Z,457.00
2024-03-27T10:33:13.756Z,456.00
2024-03-27T10:34:15.696Z,452.00
2024-03-27T10:35:11.981Z,452.00
2024-03-27T10:36:11.988Z,453.00
2024-03-27T10:37:12.951Z,452.00
2024-03-27T10:38:11.992Z,454.00
2024-03-27T10:39:13.388Z,456.00
2024-03-27T10:40:11.995Z,456.00
2024-03-27T10:41:11.985Z,457.00
2024-03-27T10:42:11.995Z,455.00
2024-03-27T10:43:12.966Z,456.00
2024-03-27T10:44:11.993Z,455.00
2024-03-27T10:45:11.995Z,455.00
2024-03-27T10:46:11.993Z,453.00
2024-03-27T10:47:12.001Z,452.00
2024-03-27T10:48:12.005Z,454.00
2024-03-27T10:49:12.002Z,453.00
2024-03-27T10:50:12.044Z,453.00
2024-03-27T10:51:14.554Z,455.00
2024-03-27T10:52:12.039Z,455.00
2024-03-27T10:53:12.037Z,453.00
2024-03-27T10:54:12.977Z,453.00
2024-03-27T10:55:12.054Z,453.00
2024-03-27T10:56:12.046Z,453.00
2024-03-27T10:57:12.041Z,452.00
2024-03-27T10:58:12.042Z,455.00
2024-03-27T10:59:12.052Z,456.00
2024-03-27T11:00:18.959Z,456.00
2024-03-27T11:01:12.384Z,457.00
2024-03-27T11:02:12.051Z,453.00
2024-03-27T11:03:12.054Z,452.00
2024-03-27T11:04:12.057Z,453.00
2024-03-27T11:05:12.065Z,454.00
2024-03-27T11:06:12.137Z,454.00
2024-03-27T11:07:12.097Z,454.00
2024-03-27T11:08:12.092Z,454.00
2024-03-27T11:09:12.964Z,452.00
2024-03-27T11:10:12.105Z,455.00
2024-03-27T11:11:12.961Z,456.00
2024-03-27T11:12:12.962Z,455.00
2024-03-27T11:13:12.108Z,453.00
2024-03-27T11:14:12.105Z,453.00
2024-03-27T11:15:12.106Z,453.00
2024-03-27T11:16:12.134Z,454.00
2024-03-27T11:17:12.102Z,454.00
2024-03-27T11:18:14.548Z,455.00
2024-03-27T11:19:12.118Z,455.00
2024-03-27T11:20:12.116Z,454.00
2024-03-27T11:21:12.110Z,455.00
2024-03-27T11:22:12.129Z,457.00
2024-03-27T11:23:12.115Z,461.00
2024-03-27T11:24:12.128Z,461.00
2024-03-27T11:25:12.114Z,461.00
2024-03-27T11:26:12.160Z,463.00
2024-03-27T11:27:12.164Z,462.00
2024-03-27T11:28:12.966Z,463.00
2024-03-27T11:29:12.971Z,462.00
2024-03-27T11:30:12.164Z,461.00
2024-03-27T11:31:12.163Z,461.00
2024-03-27T11:32:12.165Z,462.00
2024-03-27T11:33:12.170Z,461.00
2024-03-27T11:34:12.172Z,464.00
2024-03-27T11:35:12.177Z,465.00
2024-03-27T11:36:12.844Z,465.00
2024-03-27T11:37:12.263Z,465.00
2024-03-27T11:38:14.986Z,466.00
2024-03-27T11:39:12.234Z,464.00
2024-03-27T11:40:12.230Z,462.00
2024-03-27T11:41:12.224Z,461.00
2024-03-27T11:42:12.217Z,460.00
2024-03-27T11:43:12.230Z,462.00
2024-03-27T11:44:12.228Z,460.00
2024-03-27T11:45:12.984Z,458.00
2024-03-27T11:46:12.241Z,459.00
2024-03-27T11:47:12.237Z,459.00
2024-03-27T11:48:12.277Z,460.00
2024-03-27T11:49:12.242Z,460.00
2024-03-27T11:50:12.243Z,459.00
2024-03-27T11:51:12.236Z,460.00
2024-03-27T11:52:14.983Z,462.00
2024-03-27T11:53:12.244Z,459.00
2024-03-27T11:54:12.265Z,460.00
2024-03-27T11:55:12.240Z,459.00
2024-03-27T11:56:12.249Z,458.00
2024-03-27T11:57:12.250Z,459.00
2024-03-27T11:58:12.250Z,460.00
2024-03-27T11:59:12.256Z,460.00
2024-03-27T12:00:12.260Z,457.00
2024-03-27T12:01:12.259Z,459.00
2024-03-27T12:02:12.273Z,461.00
2024-03-27T12:03:12.270Z,462.00
2024-03-27T12:04:12.268Z,459.00
2024-03-27T12:05:12.274Z,460.00
2024-03-27T12:06:12.255Z,458.00
2024-03-27T12:07:12.269Z,459.00
2024-03-27T12:08:12.268Z,459.00
2024-03-27T12:09:12.273Z,462.00
2024-03-27T12:10:12.341Z,462.00
2024-03-27T12:11:12.333Z,464.00
2024-03-27T12:12:12.327Z,465.00
2024-03-27T12:13:14.291Z,465.00
2024-03-27T12:14:12.327Z,463.00
2024-03-27T12:15:12.331Z,462.00
2024-03-27T12:16:12.333Z,461.00
2024-03-27T12:17:12.332Z,461.00
2024-03-27T12:18:12.334Z,463.00
2024-03-27T12:19:12.387Z,463.00
2024-03-27T12:20:12.392Z,459.00
2024-03-27T12:21:12.397Z,456.00
2024-03-27T12:22:12.389Z,456.00
2024-03-27T12:23:12.389Z,459.00
2024-03-27T12:24:12.394Z,460.00
2024-03-27T12:25:12.388Z,461.00
2024-03-27T12:26:12.428Z,459.00
2024-03-27T12:27:12.380Z,458.00
2024-03-27T12:28:12.432Z,459.00
2024-03-27T12:29:12.431Z,459.00
2024-03-27T12:30:12.433Z,459.00
2024-03-27T12:31:12.442Z,459.00
2024-03-27T12:32:12.446Z,458.00
2024-03-27T12:33:12.450Z,459.00
2024-03-27T12:34:12.445Z,457.00
2024-03-27T12:35:12.449Z,456.00
2024-03-27T12:36:12.456Z,455.00
2024-03-27T12:37:12.460Z,457.00
2024-03-27T12:38:12.460Z,459.00
2024-03-27T12:39:12.467Z,461.00
2024-03-27T12:40:12.464Z,461.00
2024-03-27T12:41:12.513Z,462.00
2024-03-27T12:42:12.594Z,461.00
2024-03-27T12:43:12.640Z,461.00
2024-03-27T12:44:12.697Z,460.00
2024-03-27T12:45:12.753Z,458.00
2024-03-27T12:46:12.815Z,462.00
2024-03-27T12:47:12.891Z,463.00
2024-03-27T12:48:12.955Z,462.00
2024-03-27T12:49:13.049Z,460.00
2024-03-27T12:50:13.106Z,459.00
2024-03-27T12:51:13.190Z,456.00
2024-03-27T12:52:13.267Z,456.00
2024-03-27T12:53:13.359Z,453.00
2024-03-27T12:54:16.363Z,455.00
2024-03-27T12:55:13.452Z,455.00
2024-03-27T12:56:13.452Z,453.00
2024-03-27T12:57:14.021Z,451.00
2024-03-27T12:58:13.450Z,454.00
2024-03-27T12:59:13.447Z,457.00
2024-03-27T13:00:13.452Z,457.00
2024-03-27T13:01:14.004Z,454.00
2024-03-27T13:02:13.456Z,453.00
2024-03-27T13:03:13.998Z,455.00
2024-03-27T13:04:13.485Z,456.00
2024-03-27T13:05:13.477Z,457.00
2024-03-27T13:06:13.491Z,456.00
2024-03-27T13:07:13.481Z,455.00
2024-03-27T13:08:13.506Z,455.00
2024-03-27T13:09:14.407Z,453.00
2024-03-27T13:10:13.489Z,453.00
2024-03-27T13:11:13.488Z,452.00
2024-03-27T13:12:13.492Z,452.00
2024-03-27T13:13:13.502Z,451.00
2024-03-27T13:14:13.511Z,452.00
2024-03-27T13:15:13.574Z,455.00
2024-03-27T13:16:13.624Z,458.00
2024-03-27T13:17:13.705Z,457.00
2024-03-27T13:18:13.757Z,457.00
2024-03-27T13:19:13.806Z,454.00
2024-03-27T13:20:13.882Z,453.00
2024-03-27T13:21:13.946Z,453.00
2024-03-27T13:22:14.017Z,454.00
2024-03-27T13:23:14.100Z,451.00
2024-03-27T13:24:14.190Z,453.00